עמוד ראשי
METAR-TAF:

METAR-TAF

שדות תעופה :

Grant County Airport

סילבר סיטי, ניו מקסיקו, ארצות הברית

קו רוחב: 32-38N, קו אורך: 108-09W, גובה: 1659מטר

תצפית מזג אוויר נוכחית

הדו"ח נערך לפני 30דקות, בשעה 09:15 UTC
רוח 10קשר מכיוון צפון
טמפרטורת 21 צלסיוס
לחות 18%
לחץ 1016 hPa
ראות: 16.1קילומטר
שמיים נקיים

METAR: KSVC 160915Z AUTO 35010KT 10SM CLR 21/M04 A2999 RMK AO2 T02061045

זמן: 03:45 (09:45 UTC)


TAF: חסר

תצפיות ותחזיות מזג אוויר לגבי יותר מ- 4,000 שדות תעופה ברחבי העולם. דוחות METAR ו- TAF.

התחנות הזמינות מסומנות בנקודות צהובות ואדומות על גבי המפה.

העבר את העכבר לנקודה הצבעונית על מנת לראות את שם התחנה.

לאחר מכן, לחץ כדי לראות את תוכן ואת תחזיות מזג האוויר.

כדי לשנות את המפה: לחץ על הכפתורים הירוקים עם הפלוס השחור כדי להתקרב; על הכפתור הירוק עם המקף כדי להתרחק; או בחיצים הירוקים למפות סמוכות.


METAR-TAF: